Darstellungsparameter: Aktuell verwendete Einstellungen:
Skalierung der Graphiken ... ?
xyx+y,   Skalierungsfaktor:      Skalierung: Modus: x, Faktor: 1
Darstellungszeitraum ... ?
Vom - - bis: - -   Zeitraum: 01.05.2020 - 30.10.2020
Min/Max/Avg-Anzeige ... ?
Zeige MMA aktuell
Zeige MMA Monat
Zeige MMA alles
Zeige --A aktuell
Zeige --A Monat
Zeige --A alles
Keine MMA-Anzeige
MMA:
Minimum Maximum Average (ber die Originaldaten)
MMA-Basis: 01.05.2020 - 30.10.2020
Quicknavigation für Darstellung... ?
Tage:      1T, 2T, 3T, 5T -1T -2T -3T -5T +1T +2T +3T +5T
Wochen: 1W, 2W, 3W -1W -2W -3W +1W +2W +3W
Monate: 1M, 3M, 6M -1M -3M -6M +1M +3M +6M
Jahre:    1J, 3J, 5J, 10J -1J -3J -5J -10J +1J +3J +5J +10J
Nutze für die Darstellung ... ?
Originaldaten oder ...
Mittelwerte Minima Maxima auf...
Stundenbasis Tagesbasis Wochenbasis
Monatsbasis Jahresbasis      Datenbasis: Mittelwerte auf Tagesbasis
Darstellen als:
Statistik (Auto) Statistik J:M      Darstellung:
Zur Graphik,    zurück zur Übersicht aller Sensoren.
 
Tabellarische Datenbersicht: ?
 
Sensor: Nr:Datum:Temp:Feuchte:
Aussen-T/F 1 01-05-2020 00:00:00 10.66042 C 37.3542 %
2 02-05-2020 00:00:00 10.00764 C 36.3611 %
3 03-05-2020 00:00:00 10.75833 C 34.4653 %
4 04-05-2020 00:00:00 11.74722 C 36.3681 %
5 05-05-2020 00:00:00 11.26667 C 32.2083 %
6 06-05-2020 00:00:00 11.08403 C 30.6181 %
7 07-05-2020 00:00:00 13.50764 C 30.8056 %
8 08-05-2020 00:00:00 15.85208 C 29.3056 %
9 09-05-2020 00:00:00 16.28611 C 29.0139 %
10 10-05-2020 00:00:00 15.97153 C 36.6389 %
11 11-05-2020 00:00:00 9.26875 C 32.4028 %
12 12-05-2020 00:00:00 8.55764 C 29.8264 %
13 13-05-2020 00:00:00 9.41528 C 30.4444 %
14 14-05-2020 00:00:00 9.74792 C 29.2917 %
15 15-05-2020 00:00:00 11.27986 C 28.5903 %
16 16-05-2020 00:00:00 11.95833 C 29.2986 %
17 17-05-2020 00:00:00 14.25556 C 28.0625 %
18 18-05-2020 00:00:00 16.81042 C 28.8681 %
19 19-05-2020 00:00:00 17.67986 C 29.2153 %
20 20-05-2020 00:00:00 18.90417 C 29.3611 %
21 21-05-2020 00:00:00 20.425 C 29.2361 %
22 22-05-2020 00:00:00 20.27222 C 29.9583 %
23 23-05-2020 00:00:00 13.65972 C 37.1111 %
24 24-05-2020 00:00:00 13.68056 C 31.3750 %
25 25-05-2020 00:00:00 16.41181 C 30.5625 %
Sensor: Nr:Datum:Temp:Feuchte:
Aussen-T/F 26 26-05-2020 00:00:00 15.69306 C 31.7292 %
27 27-05-2020 00:00:00 18.09444 C 29.6597 %
28 28-05-2020 00:00:00 18.81736 C 24.7153 %
29 29-05-2020 00:00:00 16.43681 C 26.8056 %
30 30-05-2020 00:00:00 16.61667 C 24.5000 %
31 31-05-2020 00:00:00 16.21736 C 26.2153 %
32 01-06-2020 00:00:00 19.27153 C 26.8889 %
33 02-06-2020 00:00:00 21.30486 C 25.6250 %
34 03-06-2020 00:00:00 21.06597 C 25.1042 %
35 04-06-2020 00:00:00 14.39583 C 39.8403 %
36 05-06-2020 00:00:00 11.4625 C 37.4306 %
37 06-06-2020 00:00:00 12.76111 C 34.0347 %
38 07-06-2020 00:00:00 13.84514 C 31.7083 %
39 08-06-2020 00:00:00 15.57014 C 31.2986 %
40 09-06-2020 00:00:00 14.49861 C 37.8333 %
41 10-06-2020 00:00:00 15.8625 C 35.7431 %
42 11-06-2020 00:00:00 15.99028 C 36.5486 %
43 12-06-2020 00:00:00 20.73403 C 31.5139 %
44 13-06-2020 00:00:00 21.73403 C 27.8889 %
45 14-06-2020 00:00:00 19.10208 C 32.2222 %
46 15-06-2020 00:00:00 19.14306 C 31.8264 %
47 16-06-2020 00:00:00 18.22986 C 36.8750 %
48 17-06-2020 00:00:00 18.10486 C 36.5347 %
49 18-06-2020 00:00:00 19.72569 C 31.4722 %
50 19-06-2020 00:00:00 17.11181 C 35.9028 %
Sensor: Nr:Datum:Temp:Feuchte:
Aussen-T/F 51 20-06-2020 00:00:00 17.44514 C 34.6319 %
52 21-06-2020 00:00:00 20.65208 C 31.4097 %
53 22-06-2020 00:00:00 20.03958 C 29.0347 %
54 23-06-2020 00:00:00 21.27708 C 29.8472 %
55 24-06-2020 00:00:00 22.32569 C 27.2222 %
56 25-06-2020 00:00:00 22.52222 C 26.3264 %
57 26-06-2020 00:00:00 23.33542 C 29.4306 %
58 27-06-2020 00:00:00 23.59236 C 27.9236 %
59 28-06-2020 00:00:00 20.15625 C 29.1181 %
60 29-06-2020 00:00:00 18.91667 C 29.3750 %
61 30-06-2020 00:00:00 17.63611 C 29.2500 %
62 01-07-2020 00:00:00 22.10764 C 27.2500 %
63 02-07-2020 00:00:00 19.35903 C 32.8611 %
64 03-07-2020 00:00:00 18.4375 C 30.9306 %
65 04-07-2020 00:00:00 19.56528 C 27.8056 %
66 05-07-2020 00:00:00 23.42222 C 26.5069 %
67 06-07-2020 00:00:00 16.97292 C 27.8264 %
68 07-07-2020 00:00:00 16.98611 C 30.0903 %
69 08-07-2020 00:00:00 15.99444 C 36.0486 %
70 09-07-2020 00:00:00 22.42361 C 30.2153 %
71 10-07-2020 00:00:00 18.77222 C 32.6042 %
72 11-07-2020 00:00:00 17.44167 C 29.9514 %
73 12-07-2020 00:00:00 18.36944 C 29.9792 %
74 13-07-2020 00:00:00 20.63333 C 27.9931 %
75 14-07-2020 00:00:00 19.57917 C 28.7153 %
Sensor: Nr:Datum:Temp:Feuchte:
Aussen-T/F 76 15-07-2020 00:00:00 18.56806 C 29.6389 %
77 16-07-2020 00:00:00 16.03611 C 38.0625 %
78 17-07-2020 00:00:00 19.64375 C 32.7222 %
79 18-07-2020 00:00:00 20.24406 C 31.3636 %
80 19-07-2020 00:00:00 23.3625 C 27.6597 %
81 20-07-2020 00:00:00 20.29931 C 28.6111 %
82 21-07-2020 00:00:00 18.99375 C 27.2083 %
83 22-07-2020 00:00:00 18.52222 C 28.8542 %
84 23-07-2020 00:00:00 20.38472 C 26.9306 %
85 24-07-2020 00:00:00 21.93889 C 24.3333 %
86 25-07-2020 00:00:00 21.73681 C 27.9583 %
87 26-07-2020 00:00:00 21.61944 C 29.2361 %
88 27-07-2020 00:00:00 22.74306 C 28.1181 %
89 28-07-2020 00:00:00 23.63681 C 22.2569 %
90 29-07-2020 00:00:00 20.21875 C 27.2083 %
91 30-07-2020 00:00:00 21.74306 C 27.3958 %
92 31-07-2020 00:00:00 25.38125 C 25.3056 %
93 01-08-2020 00:00:00 22.83611 C 31.0000 %
94 02-08-2020 00:00:00 22.3625 C 29.5694 %
95 03-08-2020 00:00:00 18.8125 C 30.2222 %
96 04-08-2020 00:00:00 20.01944 C 27.5139 %
97 05-08-2020 00:00:00 20.54444 C 28.1875 %
98 06-08-2020 00:00:00 22.82014 C 26.7500 %
99 07-08-2020 00:00:00 24.83819 C 26.9306 %
100 08-08-2020 00:00:00 27.23056 C 25.4722 %
Sensor: Nr:Datum:Temp:Feuchte:
Aussen-T/F 101 09-08-2020 00:00:00 24.89722 C 26.9583 %
102 10-08-2020 00:00:00 26.58125 C 27.6319 %
103 11-08-2020 00:00:00 26.57986 C 27.6944 %
104 12-08-2020 00:00:00 24.53194 C 33.3958 %
105 13-08-2020 00:00:00 24.15556 C 32.0694 %
106 14-08-2020 00:00:00 24.22639 C 29.9306 %
107 15-08-2020 00:00:00 22.52847 C 33.3611 %
108 16-08-2020 00:00:00 23.01608 C 33.3287 %
109 17-08-2020 00:00:00 22.00069 C 32.0694 %
110 18-08-2020 00:00:00 19.64722 C 33.6319 %
111 19-08-2020 00:00:00 19.99514 C 33.0764 %
112 20-08-2020 00:00:00 24.92847 C 30.1597 %
113 21-08-2020 00:00:00 25.70417 C 25.9653 %
114 22-08-2020 00:00:00 23.12222 C 26.7500 %
115 23-08-2020 00:00:00 19.60972 C 28.1042 %
116 24-08-2020 00:00:00 18.62986 C 28.9931 %
117 25-08-2020 00:00:00 19.32986 C 29.6458 %
118 26-08-2020 00:00:00 21.03819 C 23.8750 %
119 27-08-2020 00:00:00 19.17014 C 29.1458 %
120 28-08-2020 00:00:00 18.33125 C 32.6875 %
121 29-08-2020 00:00:00 16.67083 C 33.7222 %
122 30-08-2020 00:00:00 16.39375 C 34.2917 %
123 31-08-2020 00:00:00 15.79722 C 38.0278 %
124 01-09-2020 00:00:00 15.44097 C 36.7014 %
125 02-09-2020 00:00:00 16.35833 C 34.1458 %
Sensor: Nr:Datum:Temp:Feuchte:
Aussen-T/F 126 03-09-2020 00:00:00 14.34375 C 38.0417 %
127 04-09-2020 00:00:00 20.75069 C 32.0486 %
128 05-09-2020 00:00:00 17.11528 C 33.1597 %
129 06-09-2020 00:00:00 13.4375 C 34.3194 %
130 07-09-2020 00:00:00 14.46806 C 34.1528 %
131 08-09-2020 00:00:00 16.83333 C 32.9444 %
132 09-09-2020 00:00:00 18.66042 C 33.7431 %
133 10-09-2020 00:00:00 18.46458 C 30.3681 %
134 11-09-2020 00:00:00 15.48958 C 33.4097 %
135 12-09-2020 00:00:00 17.60694 C 32.8194 %
136 13-09-2020 00:00:00 17.58264 C 33.1181 %
137 14-09-2020 00:00:00 18.825 C 32.5972 %
138 15-09-2020 00:00:00 20.67778 C 31.9514 %
139 16-09-2020 00:00:00 20.99792 C 30.5764 %
140 17-09-2020 00:00:00 18.14167 C 27.7708 %
141 18-09-2020 00:00:00 16.05694 C 28.6458 %
142 19-09-2020 00:00:00 15.83333 C 28.6389 %
143 20-09-2020 00:00:00 14.71528 C 31.0556 %
144 21-09-2020 00:00:00 14.91458 C 32.5000 %
145 22-09-2020 00:00:00 16.11667 C 32.2500 %
146 23-09-2020 00:00:00 17.92083 C 28.8403 %
147 24-09-2020 00:00:00 16.25417 C 33.3333 %
148 25-09-2020 00:00:00 12.31111 C 36.3958 %
149 26-09-2020 00:00:00 10.10347 C 40.6528 %
150 27-09-2020 00:00:00 10.94444 C 41.1250 %
Sensor: Nr:Datum:Temp:Feuchte:
Aussen-T/F 151 28-09-2020 00:00:00 11.69167 C 38.6736 %
152 29-09-2020 00:00:00 11.77431 C 42.8125 %
153 30-09-2020 00:00:00 14.11111 C 38.7153 %
154 01-10-2020 00:00:00 12.29028 C 40.9444 %
155 02-10-2020 00:00:00 13.37083 C 37.4167 %
156 03-10-2020 00:00:00 13.26319 C 37.8333 %
157 04-10-2020 00:00:00 11.62917 C 38.9236 %
158 05-10-2020 00:00:00 10.97153 C 39.6181 %
159 06-10-2020 00:00:00 12.99722 C 37.3264 %
160 07-10-2020 00:00:00 13.06667 C 34.6597 %
161 08-10-2020 00:00:00 13.22847 C 37.7153 %
162 09-10-2020 00:00:00 12.59375 C 41.7917 %
163 10-10-2020 00:00:00 9.99792 C 37.6597 %
164 11-10-2020 00:00:00 9.97917 C 37.2014 %
165 12-10-2020 00:00:00 9.1875 C 41.7222 %
166 13-10-2020 00:00:00 7.29441 C 42.2238 %
167 14-10-2020 00:00:00 7.53958 C 40.7708 %
168 15-10-2020 00:00:00 8.77153 C 42.0833 %
169 16-10-2020 00:00:00 8.84167 C 42.1250 %
170 17-10-2020 00:00:00 5.93889 C 43.1319 %
171 18-10-2020 00:00:00 8.03542 C 40.4792 %
172 19-10-2020 00:00:00 8.36736 C 41.3056 %
173 20-10-2020 00:00:00 8.59236 C 42.2014 %
174 21-10-2020 00:00:00 15.21042 C 34.9167 %
175 22-10-2020 00:00:00 16.22292 C 35.5694 %
Sensor: Nr:Datum:Temp:Feuchte:
Aussen-T/F 176 23-10-2020 00:00:00 14.75486 C 39.6319 %
177 24-10-2020 00:00:00 13.26458 C 37.1319 %
178 25-10-2020 00:00:00 12.824 C 38.0600 %
179 26-10-2020 00:00:00 10.00486 C 39.5764 %
180 27-10-2020 00:00:00 10.29583 C 36.9792 %
181 28-10-2020 00:00:00 12.41111 C 36.5347 %
182 29-10-2020 00:00:00 10.31944 C 41.3611 %
183 30-10-2020 00:00:00 13.74167 C 38.2222 %
Sensor: Nr:Datum:Temp:Feuchte:
G-T/H 1 01-05-2020 00:00:00 13.42361 C 65.1111 %
2 02-05-2020 00:00:00 12.90972 C 65.8542 %
3 03-05-2020 00:00:00 12.50278 C 65.6389 %
4 04-05-2020 00:00:00 13.3096 C 66.6560 %
5 16-08-2020 00:00:00 28.83774 C 49.1132 %
6 17-08-2020 00:00:00 22.89861 C 61.1597 %
7 18-08-2020 00:00:00 21.78472 C 62.2500 %
8 19-08-2020 00:00:00 20.76042 C 62.8056 %
9 20-08-2020 00:00:00 21.42778 C 64.2153 %
10 21-08-2020 00:00:00 23.78681 C 60.8611 %
11 22-08-2020 00:00:00 23.54028 C 51.5833 %
12 23-08-2020 00:00:00 22.34236 C 54.2083 %
13 24-08-2020 00:00:00 21.13958 C 53.8264 %
14 25-08-2020 00:00:00 20.35139 C 56.7569 %
15 26-08-2020 00:00:00 20.64931 C 57.0625 %
16 27-08-2020 00:00:00 20.16944 C 57.9792 %
17 28-08-2020 00:00:00 19.75903 C 60.7222 %
18 29-08-2020 00:00:00 18.92847 C 61.1806 %
19 30-08-2020 00:00:00 18.35694 C 63.0694 %
20 31-08-2020 00:00:00 18.39792 C 64.6944 %
21 01-09-2020 00:00:00 17.98125 C 66.3125 %
22 02-09-2020 00:00:00 18.01667 C 60.1667 %
23 03-09-2020 00:00:00 17.69861 C 62.8542 %
24 04-09-2020 00:00:00 18.82847 C 66.3056 %
25 05-09-2020 00:00:00 19.28889 C 64.4444 %
Sensor: Nr:Datum:Temp:Feuchte:
G-T/H 26 06-09-2020 00:00:00 18.08056 C 57.0833 %
27 07-09-2020 00:00:00 17.27153 C 55.0972 %
28 08-09-2020 00:00:00 17.67083 C 55.2569 %
29 09-09-2020 00:00:00 18.06458 C 61.2014 %
30 10-09-2020 00:00:00 18.65208 C 58.8194 %
31 11-09-2020 00:00:00 18.21875 C 54.8403 %
32 12-09-2020 00:00:00 17.77361 C 59.5764 %
33 13-09-2020 00:00:00 18.46667 C 59.0000 %
34 14-09-2020 00:00:00 19.90417 C 56.0208 %
35 15-09-2020 00:00:00 19.45278 C 58.5278 %
36 16-09-2020 00:00:00 19.31111 C 61.5972 %
37 17-09-2020 00:00:00 19.19097 C 59.8681 %
38 18-09-2020 00:00:00 17.71667 C 58.8681 %
39 19-09-2020 00:00:00 18.09583 C 51.6806 %
40 20-09-2020 00:00:00 16.47431 C 50.9097 %
41 21-09-2020 00:00:00 16.33125 C 57.3403 %
42 22-09-2020 00:00:00 17.15069 C 57.0000 %
43 23-09-2020 00:00:00 17.37778 C 58.4792 %
44 24-09-2020 00:00:00 17.76528 C 58.3125 %
45 25-09-2020 00:00:00 16.23056 C 57.3264 %
46 26-09-2020 00:00:00 15.11111 C 62.6597 %
47 27-09-2020 00:00:00 14.62083 C 67.2569 %
48 28-09-2020 00:00:00 14.80417 C 68.7500 %
49 29-09-2020 00:00:00 14.98889 C 69.8125 %
50 30-09-2020 00:00:00 15.23333 C 70.9514 %
Sensor: Nr:Datum:Temp:Feuchte:
G-T/H 51 01-10-2020 00:00:00 15.42639 C 70.8750 %
52 02-10-2020 00:00:00 15.06736 C 71.0347 %
53 03-10-2020 00:00:00 15.58819 C 71.4722 %
54 04-10-2020 00:00:00 14.95556 C 71.5764 %
55 05-10-2020 00:00:00 14.51806 C 72.2708 %
56 06-10-2020 00:00:00 14.77986 C 73.0000 %
57 07-10-2020 00:00:00 14.95069 C 72.7708 %
58 08-10-2020 00:00:00 14.87292 C 72.7222 %
59 09-10-2020 00:00:00 15.37153 C 73.7014 %
60 10-10-2020 00:00:00 14.53542 C 71.1528 %
61 11-10-2020 00:00:00 13.96597 C 68.0556 %
62 12-10-2020 00:00:00 13.85208 C 68.7014 %
63 13-10-2020 00:00:00 13.15105 C 67.5524 %
64 14-10-2020 00:00:00 12.48056 C 67.6111 %
65 15-10-2020 00:00:00 12.82361 C 71.0347 %
66 16-10-2020 00:00:00 13.03819 C 71.9583 %
67 17-10-2020 00:00:00 12.16389 C 68.6458 %
68 18-10-2020 00:00:00 12.17778 C 71.2708 %
69 19-10-2020 00:00:00 12.32361 C 70.8056 %
70 20-10-2020 00:00:00 12.04306 C 69.4167 %
71 21-10-2020 00:00:00 13.99722 C 69.8611 %
72 22-10-2020 00:00:00 15.26181 C 70.4306 %
73 23-10-2020 00:00:00 15.6125 C 72.0000 %
74 24-10-2020 00:00:00 15.02639 C 72.2292 %
75 25-10-2020 00:00:00 14.944 C 72.5733 %
Sensor: Nr:Datum:Temp:Feuchte:
G-T/H 76 26-10-2020 00:00:00 14.36458 C 71.7917 %
77 27-10-2020 00:00:00 13.50069 C 71.3889 %
78 28-10-2020 00:00:00 13.86389 C 73.1528 %
79 29-10-2020 00:00:00 13.72292 C 72.5208 %
80 30-10-2020 00:00:00 14.03889 C 74.0000 %

Maximal/Minimal-Werte vom 01.05.2020 - 30.10.2020

Sensor Min Max Avg
Temp
(Aussen-T/F)
0.1 °C
12-05-2020  06:14:17
44.3 °C
08-08-2020  16:51:17
17.01 °C
Feuchte
(Aussen-T/F)
20 %
01-05-2020  14:53:17
48 %
03-05-2020  05:03:17
32.37 %
Temp
(G-T/H)
10.9 °C
19-10-2020  10:48:17
28.9 °C
16-08-2020  15:23:36
16.7 °C
Feuchte
(G-T/H)
34 %
19-09-2020  18:36:17
74 %
08-10-2020  16:28:17
64.45 %

Die Daten stammen von einer Davis Vantage Pro 2 Wetter-Station und werden unter Linux mit der Software wview2wettercgi und aufbereitet. Alle Angaben erfolgen ohne Gewähr für ihre Vollständigkeit oder Richtigkeit.
Kontakt: Rainer Krienke krienke@uni-koblenz.de . Meine Webseiten an der Uni Koblenz oder privat.
Version: $Revision: 0.78 $